Time;durP1;ratioP1;P1;durP2;ratioP2;P2;SDS_P1;SDS_P2;PMS_P1;PMS_P2;Temp;Humidity;BMP_temperature;BMP_pressure;BME280_temperature;BME280_humidity;BME280_pressure;Samples;Min_cycle;Max_cycle;Signal;HPM_P1;HPM_P2
2022/11/13 00:01:30;;;;;;;5.30;4.90;;;20.90;90.20;;;;;;5053210;28;20497;-67
2022/11/13 00:03:58;;;;;;;5.03;4.83;;;20.90;90.60;;;;;;5054963;28;20480;-67
2022/11/13 00:06:26;;;;;;;5.17;4.93;;;20.80;90.20;;;;;;5072718;28;20471;-67
2022/11/13 00:08:54;;;;;;;5.10;4.80;;;20.80;90.20;;;;;;5073045;28;20448;-68
2022/11/13 00:11:21;;;;;;;5.70;5.37;;;20.80;90.20;;;;;;5072955;28;20828;-68
2022/11/13 00:13:49;;;;;;;6.80;6.40;;;20.80;90.20;;;;;;5072040;28;20793;-67
2022/11/13 00:16:18;;;;;;;5.17;4.90;;;20.80;90.20;;;;;;5052573;28;20464;-64
2022/11/13 00:18:47;;;;;;;5.27;4.97;;;20.80;90.20;;;;;;5052851;28;20535;-67
2022/11/13 00:21:16;;;;;;;4.90;4.70;;;20.80;90.30;;;;;;5052859;28;20480;-68
2022/11/13 00:23:43;;;;;;;5.60;5.30;;;20.80;90.30;;;;;;5065950;28;20929;-68
2022/11/13 00:26:12;;;;;;;5.23;5.03;;;20.80;90.40;;;;;;5072458;28;20498;-67
2022/11/13 00:28:39;;;;;;;5.03;4.73;;;20.80;90.40;;;;;;5072493;28;20443;-68
2022/11/13 00:31:07;;;;;;;5.83;5.53;;;20.80;90.40;;;;;;5072544;28;20475;-67
2022/11/13 00:33:34;;;;;;;5.60;5.30;;;20.80;90.40;;;;;;5070814;28;20527;-68
2022/11/13 00:36:09;;;;;;;5.27;4.97;;;20.80;90.70;;;;;;5072362;28;20550;-68
2022/11/13 00:38:36;;;;;;;6.27;5.87;;;20.80;90.40;;;;;;5072679;28;20908;-68
2022/11/13 00:41:02;;;;;;;5.60;5.30;;;20.80;90.40;;;;;;5072245;28;20905;-68
2022/11/13 00:43:29;;;;;;;5.43;5.13;;;20.80;90.40;;;;;;5072331;28;20485;-68
2022/11/13 00:45:56;;;;;;;5.40;5.10;;;20.70;90.40;;;;;;5056215;28;20606;-68
2022/11/13 00:48:23;;;;;;;5.33;5.03;;;20.70;90.40;;;;;;5071957;28;20450;-67
2022/11/13 00:50:50;;;;;;;5.40;5.17;;;20.70;90.40;;;;;;5071790;28;20445;-68
2022/11/13 00:53:19;;;;;;;5.97;5.47;;;20.70;90.40;;;;;;5072173;28;20439;-68
2022/11/13 00:55:46;;;;;;;6.80;6.30;;;20.70;90.40;;;;;;5071792;28;20554;-67
2022/11/13 00:58:13;;;;;;;5.87;5.57;;;20.70;90.40;;;;;;5063397;28;20551;-66
2022/11/13 01:00:41;;;;;;;5.20;5.00;;;20.70;90.40;;;;;;5071959;28;20475;-67
2022/11/13 01:03:09;;;;;;;5.77;5.50;;;20.70;90.80;;;;;;5071995;28;20491;-68
2022/11/13 01:05:36;;;;;;;5.90;5.60;;;20.70;90.50;;;;;;5071996;28;20558;-68
2022/11/13 01:08:03;;;;;;;5.27;5.07;;;20.70;90.50;;;;;;5069713;28;20522;-67
2022/11/13 01:10:32;;;;;;;5.30;5.00;;;20.70;90.50;;;;;;5051989;28;20574;-68
2022/11/13 01:12:59;;;;;;;5.70;5.40;;;20.70;90.50;;;;;;5051872;28;20476;-68
2022/11/13 01:15:26;;;;;;;5.13;4.93;;;20.70;90.50;;;;;;5051691;28;20556;-67
2022/11/13 01:17:54;;;;;;;6.00;5.70;;;20.70;90.50;;;;;;5051607;28;20547;-68
2022/11/13 01:20:21;;;;;;;5.63;5.37;;;20.70;90.50;;;;;;5056152;28;20462;-68
2022/11/13 01:22:48;;;;;;;6.03;5.63;;;20.70;90.50;;;;;;5071708;28;20485;-68
2022/11/13 01:25:15;;;;;;;5.50;5.10;;;20.60;90.50;;;;;;5071698;28;20554;-68
2022/11/13 01:27:43;;;;;;;5.77;5.43;;;20.60;90.50;;;;;;5071533;28;20447;-67
2022/11/13 01:30:11;;;;;;;5.77;5.37;;;20.60;90.50;;;;;;5054685;28;20487;-67
2022/11/13 01:32:38;;;;;;;5.60;5.30;;;20.60;90.50;;;;;;5051761;28;20436;-67
2022/11/13 01:35:05;;;;;;;6.13;5.63;;;20.60;90.50;;;;;;5051485;28;20546;-67
2022/11/13 01:37:32;;;;;;;5.37;5.07;;;20.60;90.50;;;;;;5051372;28;20466;-67
2022/11/13 01:39:59;;;;;;;6.23;5.93;;;20.60;90.50;;;;;;5066115;28;21396;-68
2022/11/13 01:42:26;;;;;;;6.40;6.10;;;20.60;90.50;;;;;;5071590;28;20485;-67
2022/11/13 01:44:57;;;;;;;6.10;5.80;;;20.60;90.50;;;;;;5071538;28;20501;-67
2022/11/13 01:47:25;;;;;;;6.23;5.93;;;20.60;90.60;;;;;;5071376;28;21015;-68
2022/11/13 01:49:55;;;;;;;5.67;5.37;;;20.60;90.60;;;;;;5068378;28;20535;-68
2022/11/13 01:52:25;;;;;;;5.53;5.23;;;20.60;90.60;;;;;;5051564;28;20444;-68
2022/11/13 01:54:55;;;;;;;6.30;5.80;;;20.60;90.60;;;;;;5051528;28;20480;-67
2022/11/13 01:57:23;;;;;;;6.20;5.80;;;20.60;90.70;;;;;;5051157;28;20454;-66
2022/11/13 01:59:53;;;;;;;5.80;5.50;;;20.50;90.70;;;;;;5053505;28;20566;-67
2022/11/13 02:02:21;;;;;;;5.87;5.57;;;20.60;90.80;;;;;;5061511;28;20534;-68
2022/11/13 02:04:48;;;;;;;6.10;5.80;;;20.50;90.80;;;;;;5055478;28;20543;-68
2022/11/13 02:07:18;;;;;;;5.47;5.13;;;20.50;90.80;;;;;;5055062;28;20505;-67
2022/11/13 02:09:48;;;;;;;5.70;5.40;;;20.50;90.90;;;;;;5055385;28;20891;-67
2022/11/13 02:12:17;;;;;;;5.67;5.27;;;20.50;90.80;;;;;;5067643;28;20527;-67
2022/11/13 02:14:47;;;;;;;5.93;5.53;;;20.50;90.80;;;;;;5055138;28;21001;-67
2022/11/13 02:17:17;;;;;;;5.23;4.93;;;20.50;90.90;;;;;;5055311;28;20903;-67
2022/11/13 02:19:48;;;;;;;6.63;6.33;;;20.50;90.90;;;;;;5055133;28;20443;-67
2022/11/13 02:22:21;;;;;;;5.03;4.67;;;20.50;90.90;;;;;;5073778;28;20602;-68
2022/11/13 02:24:50;;;;;;;5.80;5.40;;;20.50;90.80;;;;;;5075040;28;20537;-68
2022/11/13 02:27:23;;;;;;;4.73;4.53;;;20.50;90.80;;;;;;5074747;28;20463;-68
2022/11/13 02:29:50;;;;;;;5.70;5.40;;;20.50;90.80;;;;;;5062048;28;20804;-67
2022/11/13 02:32:17;;;;;;;5.13;4.87;;;20.50;90.90;;;;;;5054786;28;20479;-66
2022/11/13 02:34:44;;;;;;;5.70;5.30;;;20.50;90.80;;;;;;5054932;28;20450;-67
2022/11/13 02:37:11;;;;;;;5.67;5.37;;;20.50;90.80;;;;;;5054556;28;20885;-67
2022/11/13 02:39:38;;;;;;;5.60;5.20;;;20.50;90.90;;;;;;5065102;28;21000;-67
2022/11/13 02:42:06;;;;;;;5.53;5.23;;;20.50;90.90;;;;;;5074675;28;20466;-67
2022/11/13 02:44:33;;;;;;;6.33;5.93;;;20.50;90.90;;;;;;5074579;28;20489;-67
2022/11/13 02:46:59;;;;;;;5.93;5.53;;;20.50;90.90;;;;;;5074248;28;21174;-67
2022/11/13 02:49:26;;;;;;;5.83;5.43;;;20.50;90.90;;;;;;5062802;28;20446;-68
2022/11/13 02:51:53;;;;;;;5.00;4.80;;;20.50;90.90;;;;;;5054677;28;20470;-68
2022/11/13 02:54:20;;;;;;;5.90;5.57;;;20.50;90.90;;;;;;5054434;28;20444;-67
2022/11/13 02:56:47;;;;;;;5.03;4.83;;;20.50;90.80;;;;;;5054108;28;20555;-68
2022/11/13 02:59:15;;;;;;;5.60;5.20;;;20.50;90.80;;;;;;5063756;28;20526;-68
2022/11/13 03:01:42;;;;;;;6.83;6.33;;;20.50;90.80;;;;;;5074336;28;20534;-66
2022/11/13 03:04:08;;;;;;;5.47;5.17;;;20.50;90.80;;;;;;5074220;28;20479;-68
2022/11/13 03:06:35;;;;;;;5.60;5.30;;;20.50;90.80;;;;;;5074089;28;20912;-68
2022/11/13 03:09:02;;;;;;;7.03;6.30;;;20.50;90.80;;;;;;5063746;28;20445;-67
2022/11/13 03:11:29;;;;;;;5.47;5.20;;;20.50;90.80;;;;;;5056299;28;20469;-68
2022/11/13 03:13:56;;;;;;;5.53;5.23;;;20.40;91.00;;;;;;5073722;28;20538;-68
2022/11/13 03:16:24;;;;;;;5.53;5.23;;;20.40;90.60;;;;;;5073864;28;20462;-67
2022/11/13 03:18:51;;;;;;;5.37;5.17;;;20.40;90.60;;;;;;5065334;28;20480;-67
2022/11/13 03:21:18;;;;;;;5.63;5.43;;;20.40;90.60;;;;;;5053957;28;20531;-67
2022/11/13 03:23:45;;;;;;;5.60;5.30;;;20.40;90.60;;;;;;5053863;28;20484;-67
2022/11/13 03:26:13;;;;;;;6.07;5.77;;;20.40;90.60;;;;;;5053676;28;20472;-67
2022/11/13 03:28:40;;;;;;;5.33;5.03;;;20.40;90.60;;;;;;5053758;28;20951;-67
2022/11/13 03:31:07;;;;;;;5.97;5.67;;;20.40;90.60;;;;;;5062334;28;20469;-68
2022/11/13 03:33:35;;;;;;;5.13;4.93;;;20.40;90.60;;;;;;5073842;28;21008;-68
2022/11/13 03:36:02;;;;;;;6.67;6.30;;;20.40;90.60;;;;;;5073811;28;20911;-67
2022/11/13 03:38:29;;;;;;;5.77;5.47;;;20.40;90.60;;;;;;5072524;28;20450;-67
2022/11/13 03:40:56;;;;;;;6.40;6.00;;;20.40;90.90;;;;;;5053470;28;20555;-67
2022/11/13 03:43:23;;;;;;;5.70;5.40;;;20.40;90.60;;;;;;5053447;28;20482;-67
2022/11/13 03:45:50;;;;;;;5.70;5.40;;;20.40;90.60;;;;;;5053595;28;20554;-68
2022/11/13 03:48:17;;;;;;;5.63;5.23;;;20.40;90.60;;;;;;5053302;28;20448;-66
2022/11/13 03:50:47;;;;;;;6.07;5.77;;;20.40;90.60;;;;;;5072378;28;20534;-68
2022/11/13 03:53:15;;;;;;;5.53;5.30;;;20.30;90.50;;;;;;5073460;28;20461;-67
2022/11/13 03:55:44;;;;;;;5.57;5.30;;;20.30;90.50;;;;;;5073280;28;20502;-67
2022/11/13 03:58:11;;;;;;;5.77;5.47;;;20.30;90.40;;;;;;5073039;28;20482;-67
2022/11/13 04:00:39;;;;;;;5.30;5.00;;;20.30;90.40;;;;;;5072855;28;20446;-67
2022/11/13 04:03:06;;;;;;;5.67;5.40;;;20.30;90.50;;;;;;5053075;28;20577;-67
2022/11/13 04:05:33;;;;;;;6.50;6.13;;;20.30;90.50;;;;;;5053151;28;20832;-68
2022/11/13 04:08:01;;;;;;;5.20;5.00;;;20.30;90.50;;;;;;5052954;28;20535;-66
2022/11/13 04:10:28;;;;;;;6.47;6.00;;;20.30;90.50;;;;;;5065042;28;20447;-67
2022/11/13 04:12:55;;;;;;;5.90;5.53;;;20.30;90.50;;;;;;5072960;28;20454;-68
2022/11/13 04:15:22;;;;;;;6.27;6.00;;;20.30;90.50;;;;;;5072735;28;20561;-66
2022/11/13 04:17:49;;;;;;;5.83;5.53;;;20.30;90.50;;;;;;5072699;28;20478;-67
2022/11/13 04:20:16;;;;;;;5.70;5.50;;;20.30;90.50;;;;;;5062401;28;20896;-66
2022/11/13 04:22:43;;;;;;;6.23;5.93;;;20.30;90.60;;;;;;5052843;28;20872;-67
2022/11/13 04:25:12;;;;;;;6.60;6.13;;;20.30;90.50;;;;;;5051629;28;20486;-67
2022/11/13 04:27:38;;;;;;;5.47;5.13;;;20.30;90.50;;;;;;5052417;28;20538;-67
2022/11/13 04:30:06;;;;;;;5.50;5.10;;;20.30;90.50;;;;;;5052767;28;20444;-67
2022/11/13 04:32:33;;;;;;;6.10;5.80;;;20.30;90.50;;;;;;5066324;28;20530;-67
2022/11/13 04:35:00;;;;;;;5.40;5.10;;;20.30;90.50;;;;;;5072438;28;20443;-66
2022/11/13 04:37:27;;;;;;;5.50;5.20;;;20.30;90.40;;;;;;5072276;28;20467;-67
2022/11/13 04:39:54;;;;;;;6.13;5.73;;;20.30;90.40;;;;;;5066490;28;21025;-68
2022/11/13 04:45:07;;;;;;;6.10;5.80;;;20.30;90.50;;;;;;5052875;28;21016;-65
2022/11/13 04:47:34;;;;;;;5.40;5.10;;;20.30;90.50;;;;;;5052621;28;20865;-65
2022/11/13 04:50:01;;;;;;;5.30;5.00;;;20.30;90.50;;;;;;5058509;28;20454;-66
2022/11/13 04:52:28;;;;;;;5.20;5.00;;;20.30;90.60;;;;;;5072339;28;20546;-67
2022/11/13 04:54:56;;;;;;;6.30;5.90;;;20.30;90.50;;;;;;5072124;28;20431;-66
2022/11/13 04:57:24;;;;;;;6.83;6.43;;;20.30;90.50;;;;;;5072025;28;20440;-65
2022/11/13 04:59:51;;;;;;;5.87;5.47;;;20.30;90.60;;;;;;5072189;28;20632;-66
2022/11/13 05:02:18;;;;;;;6.03;5.53;;;20.30;90.50;;;;;;5063933;28;20449;-65
2022/11/13 05:04:45;;;;;;;5.53;5.23;;;20.30;90.50;;;;;;5052023;28;21081;-65
2022/11/13 05:07:12;;;;;;;5.87;5.50;;;20.30;90.40;;;;;;5051779;28;20470;-66
2022/11/13 05:09:39;;;;;;;5.50;5.30;;;20.40;90.50;;;;;;5051943;28;20510;-67
2022/11/13 05:12:07;;;;;;;5.47;5.27;;;20.30;90.40;;;;;;5051915;28;20444;-65
2022/11/13 05:14:35;;;;;;;5.70;5.40;;;20.40;90.40;;;;;;5055896;28;20448;-65
2022/11/13 05:17:02;;;;;;;5.37;5.07;;;20.40;90.40;;;;;;5051613;28;20475;-65
2022/11/13 05:19:29;;;;;;;10.03;5.20;;;20.40;90.30;;;;;;5051879;28;20899;-64
2022/11/13 05:21:56;;;;;;;5.47;5.10;;;20.40;90.30;;;;;;5051801;28;20536;-66
2022/11/13 05:24:23;;;;;;;5.80;5.50;;;20.40;90.30;;;;;;5051716;28;20566;-63
2022/11/13 05:26:50;;;;;;;5.03;4.73;;;20.40;90.20;;;;;;5062502;28;20469;-65
2022/11/13 05:29:17;;;;;;;5.10;4.80;;;20.40;90.20;;;;;;5056590;28;20440;-66
2022/11/13 05:31:45;;;;;;;5.63;5.23;;;20.40;90.10;;;;;;5051723;28;20878;-65
2022/11/13 05:34:12;;;;;;;5.30;4.90;;;20.50;90.00;;;;;;5051775;28;20527;-66
2022/11/13 05:36:39;;;;;;;7.90;7.27;;;20.50;90.10;;;;;;5051168;28;20559;-67
2022/11/13 05:39:06;;;;;;;5.80;5.40;;;20.50;89.90;;;;;;5064121;28;20534;-65
2022/11/13 05:41:33;;;;;;;5.43;5.23;;;20.50;90.30;;;;;;5078654;22;20544;-64
2022/11/13 05:44:00;;;;;;;5.60;5.40;;;20.70;90.80;;;;;;5039043;28;20516;-63
2022/11/13 05:46:28;;;;;;;4.90;4.70;;;20.80;90.70;;;;;;5042553;28;20446;-64
2022/11/13 05:48:58;;;;;;;5.40;5.20;;;20.90;90.50;;;;;;5044828;28;20453;-63
2022/11/13 05:51:27;;;;;;;5.93;5.63;;;20.90;90.30;;;;;;5042259;28;20496;-65
2022/11/13 05:53:54;;;;;;;5.20;5.00;;;21.00;90.20;;;;;;5034258;28;20533;-61
2022/11/13 05:56:24;;;;;;;6.03;5.73;;;21.10;90.00;;;;;;5032014;28;20528;-65
2022/11/13 05:58:52;;;;;;;5.93;5.53;;;21.10;89.60;;;;;;5032195;28;20851;-64
2022/11/13 06:01:22;;;;;;;5.57;5.27;;;21.20;89.20;;;;;;5032275;28;20501;-64
2022/11/13 06:03:50;;;;;;;5.77;5.43;;;21.20;88.90;;;;;;5032153;28;20519;-64
2022/11/13 06:06:21;;;;;;;5.63;5.07;;;21.20;88.50;;;;;;5031659;28;20530;-62
2022/11/13 06:08:49;;;;;;;5.63;5.33;;;21.30;88.40;;;;;;5031370;28;20887;-65
2022/11/13 06:11:18;;;;;;;5.70;5.40;;;21.30;88.20;;;;;;5031737;28;20507;-62
2022/11/13 06:13:45;;;;;;;6.07;5.77;;;21.30;87.90;;;;;;5031668;28;20445;-65
2022/11/13 06:16:15;;;;;;;6.10;5.73;;;21.30;87.70;;;;;;5031604;28;21001;-65
2022/11/13 06:18:44;;;;;;;6.53;6.23;;;21.40;87.80;;;;;;5031233;28;20889;-60
2022/11/13 06:21:13;;;;;;;5.00;4.80;;;21.50;87.60;;;;;;5031748;28;20857;-59
2022/11/13 06:23:41;;;;;;;6.13;5.80;;;21.50;87.90;;;;;;5031580;28;20447;-61
2022/11/13 06:26:10;;;;;;;6.30;5.93;;;21.60;86.90;;;;;;5031884;28;20483;-63
2022/11/13 06:28:38;;;;;;;4.73;4.60;;;21.60;86.50;;;;;;5031199;28;20495;-63
2022/11/13 06:31:06;;;;;;;5.73;5.47;;;21.70;86.10;;;;;;5031388;28;20489;-60
2022/11/13 06:33:33;;;;;;;6.00;5.70;;;21.70;85.70;;;;;;5031400;28;20481;-67
2022/11/13 06:36:02;;;;;;;6.27;6.03;;;21.70;85.40;;;;;;5031438;28;20970;-64
2022/11/13 06:38:31;;;;;;;7.07;6.77;;;21.70;85.10;;;;;;5031082;28;20445;-62
2022/11/13 06:41:00;;;;;;;6.00;5.63;;;21.70;84.90;;;;;;5030908;28;20477;-61
2022/11/13 06:43:27;;;;;;;5.60;5.40;;;21.70;84.60;;;;;;5029952;28;20488;-61
2022/11/13 06:45:54;;;;;;;5.30;5.10;;;21.80;84.40;;;;;;5031336;28;20523;-63
2022/11/13 06:48:21;;;;;;;6.60;6.23;;;21.80;84.20;;;;;;5032339;28;20825;-63
2022/11/13 06:50:48;;;;;;;6.20;6.00;;;21.80;84.00;;;;;;5039254;28;20507;-61
2022/11/13 06:53:16;;;;;;;5.83;5.63;;;21.80;83.70;;;;;;5034890;28;20519;-62
2022/11/13 06:55:44;;;;;;;6.17;5.90;;;21.80;83.60;;;;;;5034998;28;20525;-62
2022/11/13 06:58:13;;;;;;;6.43;6.13;;;21.80;84.30;;;;;;5034452;28;20464;-62
2022/11/13 07:00:40;;;;;;;5.77;5.53;;;21.90;83.60;;;;;;5034612;28;20559;-63
2022/11/13 07:03:14;;;;;;;6.13;5.83;;;22.00;83.30;;;;;;5034337;28;20852;-57
2022/11/13 07:05:41;;;;;;;5.87;5.67;;;22.00;83.90;;;;;;5034390;28;20571;-63
2022/11/13 07:08:08;;;;;;;5.47;5.23;;;22.00;82.20;;;;;;5034341;28;20829;-64
2022/11/13 07:10:35;;;;;;;5.57;5.27;;;22.00;82.40;;;;;;5034452;28;20548;-58
2022/11/13 07:13:02;;;;;;;6.10;5.80;;;22.00;82.20;;;;;;5034159;28;20481;-64
2022/11/13 07:15:33;;;;;;;5.83;5.53;;;22.00;81.90;;;;;;5034562;28;20443;-60
2022/11/13 07:18:00;;;;;;;5.70;5.40;;;22.00;81.70;;;;;;5034046;28;20452;-60
2022/11/13 07:20:28;;;;;;;5.80;5.50;;;22.10;81.60;;;;;;5034297;28;20461;-60
2022/11/13 07:22:55;;;;;;;5.33;5.13;;;22.10;81.30;;;;;;5034219;28;20441;-61
2022/11/13 07:25:22;;;;;;;5.60;5.40;;;22.10;81.00;;;;;;5035189;28;20477;-65
2022/11/13 07:27:49;;;;;;;5.87;5.57;;;22.10;80.80;;;;;;5037917;28;20453;-64
2022/11/13 07:30:16;;;;;;;5.77;5.50;;;22.10;80.70;;;;;;5038036;28;20445;-64
2022/11/13 07:32:45;;;;;;;5.30;5.10;;;22.10;80.50;;;;;;5034923;28;20496;-63
2022/11/13 07:35:11;;;;;;;5.93;5.63;;;22.10;80.30;;;;;;5033940;28;20507;-61
2022/11/13 07:37:38;;;;;;;6.17;5.97;;;22.10;80.10;;;;;;5033400;28;20886;-62
2022/11/13 07:40:07;;;;;;;5.20;5.03;;;22.20;80.10;;;;;;5033752;28;20445;-64
2022/11/13 07:42:33;;;;;;;5.97;5.77;;;22.20;80.20;;;;;;5034003;28;20535;-61
2022/11/13 07:45:00;;;;;;;5.63;5.43;;;22.20;80.90;;;;;;5033661;28;20489;-60
2022/11/13 07:47:27;;;;;;;6.00;5.70;;;22.20;79.00;;;;;;5033541;28;20451;-62
2022/11/13 07:49:55;;;;;;;6.60;6.23;;;22.10;79.20;;;;;;5033256;28;20445;-54
2022/11/13 07:52:22;;;;;;;6.27;5.90;;;22.10;80.00;;;;;;5033220;28;20540;-61
2022/11/13 07:54:49;;;;;;;6.43;5.80;;;22.10;80.10;;;;;;5033692;28;20461;-63
2022/11/13 07:57:16;;;;;;;6.60;6.30;;;22.10;80.30;;;;;;5033373;28;20542;-62
2022/11/13 07:59:43;;;;;;;5.63;5.43;;;22.10;79.70;;;;;;5033734;28;20445;-56
2022/11/13 08:02:14;;;;;;;6.00;5.80;;;22.00;79.10;;;;;;5033135;28;20489;-54
2022/11/13 08:04:41;;;;;;;6.10;5.80;;;22.00;79.00;;;;;;5033189;28;20587;-59
2022/11/13 08:07:11;;;;;;;6.33;6.00;;;21.90;79.00;;;;;;5033024;28;20537;-61
2022/11/13 08:09:38;;;;;;;5.73;5.43;;;21.90;79.10;;;;;;5033215;28;20449;-59
2022/11/13 08:12:05;;;;;;;6.03;5.73;;;21.80;79.10;;;;;;5032872;28;21002;-62
2022/11/13 08:14:32;;;;;;;6.50;6.20;;;21.80;79.20;;;;;;5033126;28;20452;-62
2022/11/13 08:16:59;;;;;;;5.60;5.40;;;21.80;79.40;;;;;;5033010;28;20477;-61
2022/11/13 08:19:26;;;;;;;6.00;5.70;;;21.90;80.40;;;;;;5033287;28;20441;-59
2022/11/13 08:21:53;;;;;;;5.50;5.20;;;22.00;80.50;;;;;;5032899;28;20916;-63
2022/11/13 08:24:21;;;;;;;6.43;6.13;;;22.10;80.50;;;;;;5032911;28;20568;-61
2022/11/13 08:26:47;;;;;;;5.93;5.73;;;22.20;80.30;;;;;;5032351;28;20445;-62
2022/11/13 08:29:14;;;;;;;6.37;6.07;;;22.20;80.30;;;;;;5033002;28;20953;-65
2022/11/13 08:31:41;;;;;;;6.40;5.80;;;22.20;79.10;;;;;;5032734;28;20552;-64
2022/11/13 08:34:08;;;;;;;6.17;5.77;;;22.10;78.90;;;;;;5032858;28;20468;-65
2022/11/13 08:36:35;;;;;;;5.97;5.67;;;22.00;78.60;;;;;;5032831;28;20445;-64
2022/11/13 08:39:02;;;;;;;5.90;5.70;;;22.00;78.70;;;;;;5032367;28;20821;-63
2022/11/13 08:41:30;;;;;;;7.23;6.77;;;22.00;79.40;;;;;;5032395;28;20481;-58
2022/11/13 08:43:57;;;;;;;5.90;5.50;;;22.10;85.30;;;;;;5032678;28;20794;-57
2022/11/13 08:46:24;;;;;;;7.00;6.27;;;22.20;85.60;;;;;;5032400;28;20480;-59
2022/11/13 08:48:51;;;;;;;6.47;6.07;;;22.30;85.60;;;;;;5032758;28;20451;-63
2022/11/13 08:51:18;;;;;;;5.80;5.50;;;22.30;82.60;;;;;;5032488;28;20473;-62
2022/11/13 08:53:46;;;;;;;7.30;6.60;;;22.30;81.40;;;;;;5033172;28;20917;-63
2022/11/13 08:56:14;;;;;;;5.97;5.67;;;22.30;83.20;;;;;;5033548;28;20541;-64
2022/11/13 08:58:42;;;;;;;14.37;6.70;;;22.40;83.70;;;;;;5033146;28;20455;-61
2022/11/13 09:01:09;;;;;;;6.77;6.40;;;22.50;82.40;;;;;;5032856;28;20493;-63
2022/11/13 09:03:37;;;;;;;6.50;6.07;;;22.50;81.60;;;;;;5032955;28;20864;-63
2022/11/13 09:06:07;;;;;;;7.43;7.03;;;22.60;81.30;;;;;;5032396;28;20539;-56
2022/11/13 09:08:35;;;;;;;6.20;5.90;;;22.60;81.10;;;;;;5032238;28;20532;-64
2022/11/13 09:11:05;;;;;;;5.90;5.60;;;22.70;81.70;;;;;;5032147;28;20465;-64
2022/11/13 09:13:33;;;;;;;6.03;5.67;;;22.70;80.60;;;;;;5032198;28;21033;-64
2022/11/13 09:16:02;;;;;;;6.03;5.70;;;22.80;80.70;;;;;;5032149;28;20445;-58
2022/11/13 09:18:29;;;;;;;6.90;6.10;;;22.90;83.00;;;;;;5031391;28;20451;-58
2022/11/13 09:21:00;;;;;;;6.17;5.87;;;23.00;82.90;;;;;;5031653;28;20508;-63
2022/11/13 09:23:27;;;;;;;7.10;6.70;;;23.10;81.50;;;;;;5032590;28;20445;-65
2022/11/13 09:25:54;;;;;;;6.60;6.30;;;23.00;78.80;;;;;;5032424;28;20484;-62
2022/11/13 09:28:21;;;;;;;6.90;6.60;;;23.10;81.90;;;;;;5032012;28;20445;-63
2022/11/13 09:30:48;;;;;;;7.63;7.13;;;23.30;81.70;;;;;;5032389;28;20830;-62
2022/11/13 09:33:16;;;;;;;5.80;5.50;;;23.40;82.20;;;;;;5032042;28;20445;-62
2022/11/13 09:35:44;;;;;;;8.10;7.50;;;23.40;81.00;;;;;;5032216;28;20536;-63
2022/11/13 09:38:13;;;;;;;6.60;6.30;;;23.50;80.40;;;;;;5031874;28;20453;-64
2022/11/13 09:40:46;;;;;;;6.50;6.20;;;23.50;78.60;;;;;;5031968;28;20877;-65
2022/11/13 09:43:25;;;;;;;7.30;6.80;;;23.50;77.80;;;;;;5032418;28;20539;-64
2022/11/13 09:45:56;;;;;;;6.43;5.97;;;23.40;76.60;;;;;;5031792;28;20567;-62
2022/11/13 09:48:30;;;;;;;6.47;6.27;;;23.40;77.10;;;;;;5031934;28;20452;-64
2022/11/13 09:51:00;;;;;;;6.30;5.70;;;23.40;77.20;;;;;;5032377;28;20463;-61
2022/11/13 09:53:34;;;;;;;6.83;6.40;;;23.40;76.20;;;;;;5032229;28;20953;-63
2022/11/13 09:56:15;;;;;;;6.60;6.27;;;23.40;76.00;;;;;;5031917;28;20516;-63
2022/11/13 09:58:48;;;;;;;6.73;6.33;;;23.40;75.80;;;;;;5018532;28;20448;-62
2022/11/13 10:01:23;;;;;;;8.00;7.40;;;23.40;75.90;;;;;;5031809;28;20475;-64
2022/11/13 10:03:58;;;;;;;6.80;6.43;;;23.40;76.20;;;;;;5031774;28;20802;-56
2022/11/13 10:06:36;;;;;;;5.03;4.72;;;23.50;76.50;;;;;;5028463;28;20856;-61
2022/11/13 10:09:14;;;;;;;6.07;5.67;;;23.60;78.40;;;;;;5031479;28;20205;-64
2022/11/13 10:11:45;;;;;;;6.20;5.60;;;23.70;79.00;;;;;;5031627;28;20456;-64
2022/11/13 10:14:18;;;;;;;6.93;6.33;;;23.70;76.20;;;;;;5032111;28;21021;-64
2022/11/13 10:16:52;;;;;;;9.00;5.43;;;23.70;75.80;;;;;;5031706;28;20481;-65
2022/11/13 10:19:26;;;;;;;5.67;5.17;;;23.70;77.60;;;;;;5032054;28;20449;-64
2022/11/13 10:21:58;;;;;;;5.40;5.10;;;23.70;76.70;;;;;;5032107;28;20551;-62
2022/11/13 10:24:28;;;;;;;6.23;5.77;;;23.70;77.50;;;;;;5034811;28;20448;-63
2022/11/13 10:26:57;;;;;;;6.77;6.17;;;23.80;77.00;;;;;;5036795;28;21561;-64
2022/11/13 10:29:26;;;;;;;5.57;5.17;;;23.80;76.60;;;;;;5025947;28;20484;-60
2022/11/13 10:31:54;;;;;;;6.03;5.70;;;23.80;76.20;;;;;;5015747;28;20497;-66
2022/11/13 10:34:22;;;;;;;6.07;5.73;;;23.90;76.20;;;;;;5016225;28;20536;-64
2022/11/13 10:37:05;;;;;;;5.67;5.43;;;23.90;76.10;;;;;;5015911;28;20504;-63
2022/11/13 10:39:40;;;;;;;5.80;5.40;;;23.90;75.90;;;;;;5015657;28;20533;-61
2022/11/13 10:42:21;;;;;;;5.20;4.80;;;23.90;75.60;;;;;;5015833;28;21054;-63
2022/11/13 10:44:54;;;;;;;5.10;4.80;;;24.00;75.60;;;;;;5015780;28;20442;-63
2022/11/13 10:47:23;;;;;;;7.33;4.73;;;24.00;75.50;;;;;;5026957;28;21031;-65
2022/11/13 10:49:51;;;;;;;6.93;5.30;;;24.00;74.90;;;;;;5035827;28;20441;-60
2022/11/13 10:52:20;;;;;;;5.20;4.80;;;24.00;75.60;;;;;;5035786;28;20489;-61
2022/11/13 10:54:48;;;;;;;5.40;5.10;;;24.10;76.30;;;;;;5036408;28;20483;-59
2022/11/13 10:57:25;;;;;;;6.90;5.93;;;24.10;76.30;;;;;;5035972;28;20954;-61
2022/11/13 10:59:52;;;;;;;5.00;4.70;;;24.10;76.20;;;;;;5036349;28;20448;-66
2022/11/13 11:02:22;;;;;;;5.40;5.10;;;24.20;76.20;;;;;;5037190;28;20464;-65
2022/11/13 11:04:49;;;;;;;5.27;4.90;;;24.20;76.00;;;;;;5039251;28;20480;-61
2022/11/13 11:07:19;;;;;;;5.23;5.00;;;24.20;76.00;;;;;;5045104;28;20508;-60
2022/11/13 11:09:48;;;;;;;5.30;5.10;;;24.20;76.20;;;;;;5043071;28;20513;-62
2022/11/13 11:12:17;;;;;;;5.90;5.47;;;24.20;76.40;;;;;;5043438;28;20465;-60
2022/11/13 11:15:04;;;;;;;6.47;5.97;;;24.10;76.50;;;;;;5043159;28;20487;-58
2022/11/13 11:17:44;;;;;;;4.70;4.50;;;24.10;76.70;;;;;;5040263;28;20456;-59
2022/11/13 11:20:34;;;;;;;5.37;5.17;;;24.10;77.00;;;;;;5040709;28;20496;-62
2022/11/13 11:23:12;;;;;;;5.77;5.20;;;24.00;77.00;;;;;;5033240;28;21029;-63
2022/11/13 11:25:43;;;;;;;5.17;4.97;;;23.90;77.10;;;;;;5034394;28;20481;-59
2022/11/13 11:28:25;;;;;;;5.43;5.23;;;24.00;77.40;;;;;;5034309;28;20484;-62
2022/11/13 11:30:55;;;;;;;5.03;4.83;;;24.00;77.40;;;;;;5034165;28;20926;-59
2022/11/13 11:33:29;;;;;;;5.23;5.00;;;24.00;77.20;;;;;;5034302;28;20449;-61
2022/11/13 11:36:02;;;;;;;5.17;4.87;;;24.10;77.10;;;;;;5033787;28;20595;-64
2022/11/13 11:38:36;;;;;;;5.47;5.27;;;24.10;77.70;;;;;;5014398;28;20536;-64
2022/11/13 11:41:08;;;;;;;5.43;5.13;;;24.20;77.00;;;;;;5020384;28;20998;-63
2022/11/13 11:43:42;;;;;;;5.20;5.00;;;24.20;76.60;;;;;;5034311;28;20452;-66
2022/11/13 11:46:12;;;;;;;5.50;5.30;;;24.30;76.40;;;;;;5034423;28;20576;-65
2022/11/13 11:48:39;;;;;;;5.20;5.00;;;24.30;76.30;;;;;;5034276;28;20532;-66
2022/11/13 11:51:18;;;;;;;5.07;4.90;;;24.40;76.90;;;;;;5033743;28;20912;-66
2022/11/13 11:53:56;;;;;;;5.37;5.17;;;24.50;75.90;;;;;;5033881;28;20460;-62
2022/11/13 11:56:31;;;;;;;5.07;4.87;;;24.50;75.70;;;;;;5033850;28;20472;-65
2022/11/13 11:59:31;;;;;;;4.60;4.47;;;24.50;75.40;;;;;;5033457;28;20476;-61
2022/11/13 12:02:43;;;;;;;4.53;4.33;;;24.60;75.30;;;;;;5033674;28;20500;-63
2022/11/13 12:05:21;;;;;;;5.60;5.40;;;24.60;75.00;;;;;;5033137;28;20475;-63
2022/11/13 12:07:57;;;;;;;4.83;4.73;;;24.70;75.10;;;;;;5033510;28;20456;-64
2022/11/13 12:10:34;;;;;;;4.80;4.70;;;24.70;75.40;;;;;;5032989;28;20500;-66
2022/11/13 12:13:14;;;;;;;5.07;4.87;;;24.70;76.40;;;;;;5033034;28;20481;-66
2022/11/13 12:15:52;;;;;;;4.63;4.53;;;24.70;74.90;;;;;;5033060;28;20455;-64
2022/11/13 12:18:32;;;;;;;4.60;4.50;;;24.70;75.00;;;;;;5031941;28;20440;-66
2022/11/13 12:21:10;;;;;;;4.67;4.47;;;24.80;74.70;;;;;;5032973;28;20481;-66
2022/11/13 12:23:52;;;;;;;4.73;4.53;;;24.90;74.70;;;;;;5033367;28;20472;-66
2022/11/13 12:26:28;;;;;;;5.57;5.37;;;24.90;74.80;;;;;;5032826;28;20520;-65
2022/11/13 12:29:06;;;;;;;5.53;5.23;;;24.90;74.20;;;;;;5034605;28;20453;-64
2022/11/13 12:31:47;;;;;;;5.37;5.17;;;24.90;73.10;;;;;;5033092;28;20464;-64
2022/11/13 12:34:23;;;;;;;4.67;4.50;;;24.80;74.40;;;;;;5033766;28;20445;-65
2022/11/13 12:36:51;;;;;;;4.93;4.73;;;24.80;74.40;;;;;;5033390;28;20528;-66
2022/11/13 12:39:35;;;;;;;5.40;5.03;;;24.80;75.10;;;;;;5033068;28;20472;-66
2022/11/13 12:42:14;;;;;;;4.37;4.27;;;24.80;75.30;;;;;;5033214;28;20508;-65
2022/11/13 12:44:51;;;;;;;4.50;4.40;;;24.70;74.90;;;;;;5033150;28;20459;-62
2022/11/13 12:47:18;;;;;;;5.53;5.13;;;24.70;74.50;;;;;;5031621;28;20851;-64
2022/11/13 12:49:45;;;;;;;4.50;4.40;;;24.70;74.50;;;;;;5032788;28;20446;-64
2022/11/13 12:52:21;;;;;;;4.37;4.17;;;24.70;74.60;;;;;;5033180;28;20993;-63
2022/11/13 12:54:48;;;;;;;4.23;4.03;;;24.70;74.80;;;;;;5034275;28;20449;-63
2022/11/13 12:57:26;;;;;;;4.60;4.33;;;24.70;74.70;;;;;;5033535;28;20445;-65
2022/11/13 12:59:55;;;;;;;4.40;4.30;;;24.70;75.10;;;;;;5035188;28;20449;-66
2022/11/13 13:02:50;;;;;;;4.30;4.20;;;24.70;74.90;;;;;;5035145;28;20901;-66